createdAt,value
2017-12-06T00:00:45.988Z,4.80
2017-12-06T00:03:13.572Z,4.80
2017-12-06T00:05:41.898Z,4.80
2017-12-06T00:08:09.796Z,4.80
2017-12-06T00:10:37.364Z,4.80
2017-12-06T00:13:11.496Z,4.90
2017-12-06T00:15:42.832Z,4.90
2017-12-06T00:18:11.215Z,4.90
2017-12-06T00:20:39.578Z,4.90
2017-12-06T00:23:07.911Z,4.90
2017-12-06T00:25:35.495Z,4.90
2017-12-06T00:28:03.057Z,4.90
2017-12-06T00:30:30.639Z,4.80
2017-12-06T00:32:58.200Z,4.90
2017-12-06T00:35:25.814Z,4.90
2017-12-06T00:37:54.820Z,4.90
2017-12-06T00:40:22.415Z,4.90
2017-12-06T00:42:49.999Z,4.90
2017-12-06T00:45:18.323Z,4.90
2017-12-06T00:47:45.916Z,4.90
2017-12-06T00:50:13.473Z,4.90
2017-12-06T00:52:41.064Z,5.00
2017-12-06T00:55:09.392Z,5.00
2017-12-06T00:57:36.971Z,5.00
2017-12-06T01:00:04.532Z,5.00
2017-12-06T01:02:33.652Z,5.00
2017-12-06T01:05:01.988Z,5.00
2017-12-06T01:07:29.548Z,5.00
2017-12-06T01:09:57.131Z,5.00
2017-12-06T01:12:24.688Z,5.00
2017-12-06T01:14:53.192Z,5.00
2017-12-06T01:17:21.520Z,5.00
2017-12-06T01:19:49.105Z,5.00
2017-12-06T01:22:16.671Z,5.00
2017-12-06T01:24:45.024Z,5.00
2017-12-06T01:27:12.899Z,5.00
2017-12-06T01:29:40.487Z,5.00
2017-12-06T01:32:08.056Z,5.00
2017-12-06T01:34:36.659Z,5.00
2017-12-06T01:37:04.252Z,4.90
2017-12-06T01:39:31.813Z,4.90
2017-12-06T01:41:59.516Z,4.90
2017-12-06T01:44:27.852Z,4.90
2017-12-06T01:46:56.667Z,4.90
2017-12-06T01:51:58.312Z,4.80
2017-12-06T01:54:25.880Z,4.90
2017-12-06T01:56:54.700Z,4.80
2017-12-06T01:59:22.263Z,4.80
2017-12-06T02:01:49.884Z,4.80
2017-12-06T02:04:17.452Z,4.80
2017-12-06T02:06:45.020Z,4.80
2017-12-06T02:09:12.603Z,4.80
2017-12-06T02:11:40.179Z,4.80
2017-12-06T02:14:08.710Z,4.90
2017-12-06T02:16:36.388Z,4.90
2017-12-06T02:19:04.020Z,4.90
2017-12-06T02:21:31.594Z,4.90
2017-12-06T02:23:59.183Z,4.90
2017-12-06T02:26:26.789Z,4.90
2017-12-06T02:28:55.867Z,4.90
2017-12-06T02:31:24.236Z,4.80
2017-12-06T02:33:51.795Z,4.80
2017-12-06T02:36:19.385Z,4.80
2017-12-06T02:38:46.951Z,4.80
2017-12-06T02:41:26.305Z,4.80
2017-12-06T02:44:05.948Z,4.80
2017-12-06T02:46:33.535Z,4.80
2017-12-06T02:49:01.092Z,4.80
2017-12-06T02:51:28.694Z,4.80
2017-12-06T02:53:57.022Z,4.80
2017-12-06T02:56:24.603Z,4.80
2017-12-06T02:58:53.080Z,4.80
2017-12-06T03:01:20.696Z,4.80
2017-12-06T03:03:49.007Z,4.80
2017-12-06T03:06:16.568Z,4.80
2017-12-06T03:08:44.152Z,4.70
2017-12-06T03:11:11.720Z,4.80
2017-12-06T03:13:40.068Z,4.80
2017-12-06T03:16:07.629Z,4.80
2017-12-06T03:18:35.231Z,4.80
2017-12-06T03:21:02.791Z,4.80
2017-12-06T03:23:30.443Z,4.80
2017-12-06T03:25:58.028Z,4.80
2017-12-06T03:28:26.368Z,4.80
2017-12-06T03:30:55.669Z,4.80
2017-12-06T03:33:23.227Z,4.80
2017-12-06T03:35:51.112Z,4.80
2017-12-06T03:38:18.738Z,4.80
2017-12-06T03:40:46.301Z,4.90
2017-12-06T03:43:13.891Z,4.90
2017-12-06T03:45:41.453Z,4.80
2017-12-06T03:48:09.036Z,4.80
2017-12-06T03:50:36.623Z,4.80
2017-12-06T03:53:04.207Z,4.90
2017-12-06T03:55:31.864Z,4.80
2017-12-06T03:57:59.468Z,4.80
2017-12-06T04:00:27.028Z,4.80
2017-12-06T04:02:55.927Z,4.80
2017-12-06T04:05:23.619Z,4.80
2017-12-06T04:07:51.935Z,4.80
2017-12-06T04:10:19.518Z,4.80
2017-12-06T04:12:47.076Z,4.80
2017-12-06T04:15:14.663Z,4.80
2017-12-06T04:17:42.990Z,4.80
2017-12-06T04:20:10.588Z,4.80
2017-12-06T04:22:38.913Z,4.80
2017-12-06T04:25:06.468Z,4.70
2017-12-06T04:27:34.052Z,4.70
2017-12-06T04:30:02.130Z,4.70
2017-12-06T04:32:29.715Z,4.70
2017-12-06T04:34:57.272Z,4.70
2017-12-06T04:37:26.355Z,4.70
2017-12-06T04:39:54.955Z,4.70
2017-12-06T04:42:22.954Z,4.70
2017-12-06T04:44:51.331Z,4.60
2017-12-06T04:47:19.651Z,4.60
2017-12-06T04:49:47.348Z,4.60
2017-12-06T04:52:16.440Z,4.60
2017-12-06T04:54:44.503Z,4.60
2017-12-06T04:57:12.932Z,4.60
2017-12-06T04:59:40.524Z,4.60
2017-12-06T05:02:08.088Z,4.60
2017-12-06T05:04:35.701Z,4.60
2017-12-06T05:07:04.060Z,4.60
2017-12-06T05:09:31.624Z,4.50
2017-12-06T05:11:59.212Z,4.50
2017-12-06T05:14:26.780Z,4.50
2017-12-06T05:16:55.863Z,4.50
2017-12-06T05:19:24.287Z,4.50
2017-12-06T05:21:51.975Z,4.50
2017-12-06T05:24:19.540Z,4.50
2017-12-06T05:26:48.667Z,4.50
2017-12-06T05:29:16.243Z,4.50
2017-12-06T05:31:43.804Z,4.50
2017-12-06T05:34:11.388Z,4.50
2017-12-06T05:36:39.123Z,4.50
2017-12-06T05:39:06.697Z,4.50
2017-12-06T05:41:34.303Z,4.50
2017-12-06T05:44:01.888Z,4.40
2017-12-06T05:46:30.218Z,4.50
2017-12-06T05:48:57.816Z,4.40
2017-12-06T05:51:26.155Z,4.40
2017-12-06T05:53:55.084Z,4.40
2017-12-06T05:56:22.803Z,4.40
2017-12-06T05:58:50.388Z,4.40
2017-12-06T06:01:17.975Z,4.40
2017-12-06T06:03:47.029Z,4.40
2017-12-06T06:06:14.614Z,4.40
2017-12-06T06:08:42.320Z,4.40
2017-12-06T06:11:09.904Z,4.40
2017-12-06T06:13:37.470Z,4.30
2017-12-06T06:16:05.052Z,4.30
2017-12-06T06:18:32.811Z,4.30
2017-12-06T06:21:00.372Z,4.40
2017-12-06T06:23:27.960Z,4.30
2017-12-06T06:25:55.735Z,4.30
2017-12-06T06:28:24.187Z,4.30
2017-12-06T06:30:51.791Z,4.30
2017-12-06T06:33:19.424Z,4.30
2017-12-06T06:35:46.984Z,4.30
2017-12-06T06:38:14.580Z,4.30
2017-12-06T06:40:42.147Z,4.30
2017-12-06T06:43:09.735Z,4.30
2017-12-06T06:45:37.316Z,4.30
2017-12-06T06:48:04.971Z,4.30
2017-12-06T06:50:32.536Z,4.30
2017-12-06T06:53:00.720Z,4.20
2017-12-06T06:55:28.311Z,4.30
2017-12-06T06:57:56.643Z,4.30
2017-12-06T07:00:24.309Z,4.30
2017-12-06T07:02:54.832Z,4.30
2017-12-06T07:05:22.420Z,4.30
2017-12-06T07:07:49.990Z,4.30
2017-12-06T07:10:18.345Z,4.30
2017-12-06T07:12:45.916Z,4.20
2017-12-06T07:15:13.862Z,4.30
2017-12-06T07:17:41.432Z,4.30
2017-12-06T07:20:09.791Z,4.30
2017-12-06T07:22:37.648Z,4.30
2017-12-06T07:25:05.216Z,4.30
2017-12-06T07:27:32.803Z,4.30
2017-12-06T07:30:00.367Z,4.30
2017-12-06T07:32:28.116Z,4.30
2017-12-06T07:34:56.707Z,4.30
2017-12-06T07:37:24.299Z,4.30
2017-12-06T07:39:53.555Z,4.30
2017-12-06T07:42:21.348Z,4.30
2017-12-06T07:44:48.916Z,4.30
2017-12-06T07:47:16.480Z,4.40
2017-12-06T07:49:44.063Z,4.40
2017-12-06T07:52:12.400Z,4.30
2017-12-06T07:54:39.992Z,4.30
2017-12-06T07:57:08.319Z,4.30
2017-12-06T07:59:35.902Z,4.30
2017-12-06T08:02:03.472Z,4.30
2017-12-06T08:04:31.131Z,4.30
2017-12-06T08:06:58.696Z,4.30
2017-12-06T08:09:26.354Z,4.30
2017-12-06T08:11:54.805Z,4.30
2017-12-06T08:14:22.457Z,4.30
2017-12-06T08:16:50.028Z,4.30
2017-12-06T08:19:17.643Z,4.30
2017-12-06T08:21:45.973Z,4.30
2017-12-06T08:24:13.613Z,4.30
2017-12-06T08:26:41.208Z,4.30
2017-12-06T08:29:08.775Z,4.30
2017-12-06T08:31:36.365Z,4.30
2017-12-06T08:34:05.017Z,4.30
2017-12-06T08:36:32.604Z,4.30
2017-12-06T08:39:00.275Z,4.30
2017-12-06T08:41:27.936Z,4.30
2017-12-06T08:43:56.588Z,4.30
2017-12-06T08:46:24.178Z,4.30
2017-12-06T08:48:51.744Z,4.30
2017-12-06T08:51:20.098Z,4.40
2017-12-06T08:53:47.732Z,4.30
2017-12-06T08:56:15.316Z,4.40
2017-12-06T08:58:42.892Z,4.40
2017-12-06T09:01:10.509Z,4.40
2017-12-06T09:03:38.069Z,4.40
2017-12-06T09:06:05.628Z,4.40
2017-12-06T09:08:33.908Z,4.40
2017-12-06T09:11:01.472Z,4.40
2017-12-06T09:13:29.067Z,4.40
2017-12-06T09:15:57.506Z,4.40
2017-12-06T09:18:25.123Z,4.40
2017-12-06T09:20:54.807Z,4.40
2017-12-06T09:23:22.404Z,4.40
2017-12-06T09:25:50.727Z,4.50
2017-12-06T09:28:18.412Z,4.50
2017-12-06T09:30:46.768Z,4.40
2017-12-06T09:33:14.330Z,4.50
2017-12-06T09:35:41.911Z,4.50
2017-12-06T09:38:09.476Z,4.50
2017-12-06T09:40:37.060Z,4.50
2017-12-06T09:43:05.404Z,4.60
2017-12-06T09:45:33.216Z,4.50
2017-12-06T09:48:01.557Z,4.60
2017-12-06T09:50:29.228Z,4.60
2017-12-06T09:52:57.683Z,4.60
2017-12-06T09:55:25.269Z,4.60
2017-12-06T09:57:54.423Z,4.60
2017-12-06T10:00:22.032Z,4.60
2017-12-06T10:02:50.467Z,4.60
2017-12-06T10:05:18.042Z,4.60
2017-12-06T10:07:45.640Z,4.70
2017-12-06T10:10:13.712Z,4.60
2017-12-06T10:12:41.759Z,4.70
2017-12-06T10:15:10.161Z,4.70
2017-12-06T10:17:37.724Z,4.70
2017-12-06T10:20:06.080Z,4.70
2017-12-06T10:22:33.663Z,4.70
2017-12-06T10:25:01.228Z,4.70
2017-12-06T10:27:28.828Z,4.80
2017-12-06T10:29:56.452Z,4.80
2017-12-06T10:32:24.032Z,4.80
2017-12-06T10:34:51.647Z,4.80
2017-12-06T10:37:19.208Z,4.80
2017-12-06T10:39:46.858Z,4.80
2017-12-06T10:42:14.435Z,4.80
2017-12-06T10:44:42.296Z,4.80
2017-12-06T10:47:09.864Z,4.80
2017-12-06T10:49:37.456Z,4.90
2017-12-06T10:52:05.788Z,4.90
2017-12-06T10:54:33.483Z,4.80
2017-12-06T10:57:01.047Z,4.90
2017-12-06T10:59:28.676Z,4.90
2017-12-06T11:01:57.388Z,4.90
2017-12-06T11:04:26.654Z,4.90
2017-12-06T11:06:55.856Z,4.90
2017-12-06T11:09:23.415Z,4.90
2017-12-06T11:11:50.995Z,4.90
2017-12-06T11:14:19.356Z,4.90
2017-12-06T11:16:46.984Z,4.90
2017-12-06T11:19:15.311Z,5.00
2017-12-06T11:21:42.895Z,4.90
2017-12-06T11:24:10.560Z,5.00
2017-12-06T11:26:38.181Z,5.00
2017-12-06T11:29:05.747Z,5.00
2017-12-06T11:31:33.304Z,5.00
2017-12-06T11:34:00.904Z,5.00
2017-12-06T11:36:28.675Z,5.00
2017-12-06T11:38:57.001Z,5.00
2017-12-06T11:41:24.570Z,5.00
2017-12-06T11:43:53.071Z,5.00
2017-12-06T11:46:20.632Z,5.00
2017-12-06T11:48:48.331Z,5.00
2017-12-06T11:51:16.660Z,5.00
2017-12-06T11:53:44.227Z,5.00
2017-12-06T11:56:11.814Z,5.00
2017-12-06T11:58:39.372Z,5.00
2017-12-06T12:01:06.963Z,5.10
2017-12-06T12:03:35.308Z,5.10
2017-12-06T12:06:02.896Z,5.10
2017-12-06T12:08:31.231Z,5.20
2017-12-06T12:10:58.908Z,5.10
2017-12-06T12:13:27.231Z,5.20
2017-12-06T12:15:56.720Z,5.20
2017-12-06T12:18:25.279Z,5.20
2017-12-06T12:20:54.848Z,5.20
2017-12-06T12:23:22.436Z,5.20
2017-12-06T12:25:50.000Z,5.20
2017-12-06T12:28:17.593Z,5.20
2017-12-06T12:30:45.921Z,5.20
2017-12-06T12:33:13.511Z,5.20
2017-12-06T12:35:41.180Z,5.20
2017-12-06T12:38:09.839Z,5.20
2017-12-06T12:40:37.576Z,5.20
2017-12-06T12:43:05.216Z,5.20
2017-12-06T12:45:33.576Z,5.20
2017-12-06T12:48:01.942Z,5.20
2017-12-06T12:50:29.541Z,5.20
2017-12-06T12:52:57.188Z,5.20
2017-12-06T12:55:25.524Z,5.20
2017-12-06T12:57:54.312Z,5.20
2017-12-06T13:00:22.004Z,5.20
2017-12-06T13:02:49.996Z,5.20
2017-12-06T13:05:18.392Z,5.20
2017-12-06T13:07:46.008Z,5.20
2017-12-06T13:10:13.591Z,5.20
2017-12-06T13:12:41.915Z,5.20
2017-12-06T13:15:09.500Z,5.20
2017-12-06T13:17:37.055Z,5.20
2017-12-06T13:20:04.705Z,5.20
2017-12-06T13:22:32.593Z,5.20
2017-12-06T13:25:00.243Z,5.20
2017-12-06T13:27:27.988Z,5.10
2017-12-06T13:29:56.692Z,5.10
2017-12-06T13:32:24.373Z,5.10
2017-12-06T13:34:51.931Z,5.10
2017-12-06T13:37:19.552Z,5.10
2017-12-06T13:39:47.159Z,5.10
2017-12-06T13:42:14.757Z,5.10
2017-12-06T13:44:43.676Z,5.10
2017-12-06T13:47:11.239Z,5.10
2017-12-06T13:49:38.852Z,5.10
2017-12-06T13:52:07.501Z,5.10
2017-12-06T13:54:35.072Z,5.10
2017-12-06T13:57:02.664Z,5.10
2017-12-06T13:59:31.020Z,5.10
2017-12-06T14:01:58.584Z,5.10
2017-12-06T14:04:26.187Z,5.10
2017-12-06T14:06:54.971Z,5.10
2017-12-06T14:09:22.543Z,5.10
2017-12-06T14:11:50.124Z,5.10
2017-12-06T14:14:17.688Z,5.10
2017-12-06T14:16:45.274Z,5.10
2017-12-06T14:19:12.836Z,5.10
2017-12-06T14:21:40.415Z,5.10
2017-12-06T14:24:08.760Z,5.10
2017-12-06T14:26:36.376Z,5.10
2017-12-06T14:29:04.000Z,5.10
2017-12-06T14:31:31.560Z,5.10
2017-12-06T14:33:59.140Z,5.10
2017-12-06T14:36:27.463Z,5.10
2017-12-06T14:38:55.808Z,5.00
2017-12-06T14:41:24.132Z,5.10
2017-12-06T14:43:51.716Z,5.00
2017-12-06T14:46:19.279Z,5.00
2017-12-06T14:48:46.868Z,5.00
2017-12-06T14:51:14.432Z,5.00
2017-12-06T14:53:42.780Z,5.00
2017-12-06T14:56:10.335Z,5.00
2017-12-06T14:58:37.892Z,5.00
2017-12-06T15:01:05.488Z,5.00
2017-12-06T15:03:33.820Z,5.00
2017-12-06T15:06:01.404Z,5.00
2017-12-06T15:08:28.963Z,5.00
2017-12-06T15:10:56.548Z,5.00
2017-12-06T15:13:24.877Z,5.00
2017-12-06T15:15:53.923Z,5.00
2017-12-06T15:18:22.248Z,5.00
2017-12-06T15:20:49.881Z,5.00
2017-12-06T15:23:18.200Z,5.00
2017-12-06T15:25:45.791Z,5.00
2017-12-06T15:28:14.124Z,5.00
2017-12-06T15:30:41.812Z,5.00
2017-12-06T15:33:09.376Z,5.00
2017-12-06T15:35:37.032Z,5.10
2017-12-06T15:38:04.704Z,5.10
2017-12-06T15:40:33.772Z,5.20
2017-12-06T15:43:01.360Z,5.20
2017-12-06T15:45:28.920Z,5.20
2017-12-06T15:47:56.584Z,5.20
2017-12-06T15:50:24.741Z,5.20
2017-12-06T15:52:53.292Z,5.20
2017-12-06T15:55:21.003Z,5.10
2017-12-06T15:57:48.580Z,5.10
2017-12-06T16:00:17.039Z,5.10
2017-12-06T16:02:44.601Z,5.10
2017-12-06T16:05:12.196Z,5.10
2017-12-06T16:07:40.526Z,5.10
2017-12-06T16:10:08.115Z,5.10
2017-12-06T16:12:36.441Z,5.10
2017-12-06T16:15:04.040Z,5.10
2017-12-06T16:17:31.602Z,5.10
2017-12-06T16:19:59.268Z,5.10
2017-12-06T16:22:28.379Z,5.00
2017-12-06T16:24:56.713Z,5.00
2017-12-06T16:27:24.292Z,5.00
2017-12-06T16:29:51.875Z,5.00
2017-12-06T16:32:23.390Z,5.00
2017-12-06T16:35:02.891Z,5.10
2017-12-06T16:37:31.668Z,5.00
2017-12-06T16:40:05.785Z,5.00
2017-12-06T16:42:33.641Z,5.00
2017-12-06T16:45:01.996Z,5.00
2017-12-06T16:47:30.341Z,5.00
2017-12-06T16:49:57.935Z,5.00
2017-12-06T16:52:25.501Z,5.00
2017-12-06T16:55:01.626Z,5.00
2017-12-06T16:57:29.484Z,5.00
2017-12-06T16:59:57.090Z,5.00
2017-12-06T17:02:24.647Z,5.00
2017-12-06T17:04:53.161Z,5.00
2017-12-06T17:07:21.500Z,5.10
2017-12-06T17:09:49.119Z,5.00
2017-12-06T17:12:16.675Z,5.00
2017-12-06T17:14:45.005Z,5.00
2017-12-06T17:17:12.587Z,5.00
2017-12-06T17:19:40.175Z,5.00
2017-12-06T17:22:07.744Z,5.00
2017-12-06T17:24:35.336Z,5.00
2017-12-06T17:27:02.896Z,5.00
2017-12-06T17:29:43.164Z,5.00
2017-12-06T17:32:11.524Z,5.10
2017-12-06T17:34:39.104Z,5.00
2017-12-06T17:37:06.683Z,5.10
2017-12-06T17:39:34.268Z,5.10
2017-12-06T17:42:02.604Z,5.10
2017-12-06T17:44:30.200Z,5.00
2017-12-06T17:46:58.528Z,5.00
2017-12-06T17:49:26.116Z,5.00
2017-12-06T17:51:55.691Z,5.00
2017-12-06T17:54:23.275Z,5.00
2017-12-06T17:56:50.836Z,5.00
2017-12-06T17:59:18.427Z,5.00
2017-12-06T18:01:46.752Z,5.00
2017-12-06T18:04:14.356Z,5.00
2017-12-06T18:06:41.920Z,5.00
2017-12-06T18:09:10.396Z,5.00
2017-12-06T18:11:38.060Z,5.00
2017-12-06T18:14:05.622Z,5.00
2017-12-06T18:16:33.976Z,5.00
2017-12-06T18:19:02.349Z,5.00
2017-12-06T18:21:30.088Z,5.00
2017-12-06T18:23:57.663Z,5.00
2017-12-06T18:26:25.254Z,5.00
2017-12-06T18:28:54.836Z,5.00
2017-12-06T18:31:22.428Z,5.00
2017-12-06T18:33:49.995Z,5.00
2017-12-06T18:36:17.589Z,5.00
2017-12-06T18:38:45.147Z,5.00
2017-12-06T18:41:12.736Z,5.00
2017-12-06T18:43:40.304Z,5.00
2017-12-06T18:46:07.868Z,5.00
2017-12-06T18:48:35.451Z,5.00
2017-12-06T18:51:03.013Z,5.00
2017-12-06T18:53:30.603Z,5.00
2017-12-06T18:55:58.956Z,5.00
2017-12-06T18:58:28.052Z,5.00
2017-12-06T19:00:56.603Z,5.00
2017-12-06T19:03:24.199Z,5.00
2017-12-06T19:05:53.452Z,5.00
2017-12-06T19:08:21.039Z,5.00
2017-12-06T19:10:48.599Z,5.00
2017-12-06T19:13:16.168Z,5.10
2017-12-06T19:15:43.768Z,5.10
2017-12-06T19:18:11.343Z,5.10
2017-12-06T19:20:38.931Z,5.10
2017-12-06T19:23:06.535Z,5.10
2017-12-06T19:25:34.898Z,5.10
2017-12-06T19:28:02.468Z,5.10
2017-12-06T19:30:30.096Z,5.20
2017-12-06T19:32:57.972Z,5.10
2017-12-06T19:35:25.539Z,5.10
2017-12-06T19:37:55.671Z,5.10
2017-12-06T19:40:23.332Z,5.10
2017-12-06T19:42:50.895Z,5.10
2017-12-06T19:45:18.505Z,5.10
2017-12-06T19:47:46.063Z,5.10
2017-12-06T19:50:13.652Z,5.10
2017-12-06T19:52:41.212Z,5.10
2017-12-06T19:55:08.799Z,5.10
2017-12-06T19:57:37.416Z,5.10
2017-12-06T20:00:05.767Z,5.10
2017-12-06T20:02:34.107Z,5.10
2017-12-06T20:05:01.696Z,5.10
2017-12-06T20:07:29.260Z,5.10
2017-12-06T20:09:56.856Z,5.10
2017-12-06T20:12:25.179Z,5.10
2017-12-06T20:14:54.896Z,5.10
2017-12-06T20:17:22.472Z,5.10
2017-12-06T20:19:50.056Z,5.10
2017-12-06T20:22:18.387Z,5.10
2017-12-06T20:24:46.028Z,5.10
2017-12-06T20:27:13.976Z,5.10
2017-12-06T20:29:42.300Z,5.10
2017-12-06T20:32:09.880Z,5.10
2017-12-06T20:34:37.440Z,5.20
2017-12-06T20:37:05.028Z,5.20
2017-12-06T20:39:33.352Z,5.20
2017-12-06T20:42:00.941Z,5.20
2017-12-06T20:44:28.516Z,5.20
2017-12-06T20:46:56.277Z,5.20
2017-12-06T20:49:23.836Z,5.10
2017-12-06T20:51:53.831Z,5.10
2017-12-06T20:54:21.615Z,5.00
2017-12-06T20:56:49.172Z,5.00
2017-12-06T20:59:16.736Z,4.90
2017-12-06T21:01:44.397Z,4.90
2017-12-06T21:04:11.962Z,4.90
2017-12-06T21:06:39.587Z,4.80
2017-12-06T21:09:07.147Z,4.80
2017-12-06T21:11:34.806Z,4.80
2017-12-06T21:14:02.373Z,4.80
2017-12-06T21:16:30.792Z,4.80
2017-12-06T21:18:58.352Z,4.80
2017-12-06T21:21:26.675Z,4.80
2017-12-06T21:23:56.627Z,4.80
2017-12-06T21:26:24.188Z,4.80
2017-12-06T21:28:51.771Z,4.70
2017-12-06T21:31:19.328Z,4.70
2017-12-06T21:33:46.923Z,4.70
2017-12-06T21:36:14.484Z,4.70
2017-12-06T21:38:42.080Z,4.70
2017-12-06T21:41:09.663Z,4.70
2017-12-06T21:43:37.992Z,4.60
2017-12-06T21:46:05.577Z,4.60
2017-12-06T21:48:33.134Z,4.60
2017-12-06T21:51:00.740Z,4.60
2017-12-06T21:53:29.066Z,4.60
2017-12-06T21:55:56.648Z,4.60
2017-12-06T21:58:24.208Z,4.60
2017-12-06T22:00:52.091Z,4.60
2017-12-06T22:03:19.655Z,4.60
2017-12-06T22:05:47.315Z,4.60
2017-12-06T22:08:14.899Z,4.60
2017-12-06T22:10:43.626Z,4.50
2017-12-06T22:13:11.223Z,4.50
2017-12-06T22:15:38.789Z,4.50
2017-12-06T22:18:06.371Z,4.50
2017-12-06T22:20:34.703Z,4.50
2017-12-06T22:23:02.294Z,4.50
2017-12-06T22:25:29.851Z,4.50
2017-12-06T22:27:57.611Z,4.50
2017-12-06T22:30:25.176Z,4.50
2017-12-06T22:32:54.844Z,4.50
2017-12-06T22:35:22.440Z,4.50
2017-12-06T22:37:49.999Z,4.50
2017-12-06T22:40:17.579Z,4.50
2017-12-06T22:42:45.903Z,4.50
2017-12-06T22:45:16.455Z,4.50
2017-12-06T22:47:44.019Z,4.50
2017-12-06T22:50:11.670Z,4.40
2017-12-06T22:52:39.370Z,4.50
2017-12-06T22:55:07.736Z,4.50
2017-12-06T22:57:35.339Z,4.40
2017-12-06T23:00:03.248Z,4.50
2017-12-06T23:02:31.679Z,4.40
2017-12-06T23:05:00.060Z,4.40
2017-12-06T23:07:28.395Z,4.40
2017-12-06T23:09:55.960Z,4.40
2017-12-06T23:12:23.548Z,4.40
2017-12-06T23:14:51.888Z,4.40
2017-12-06T23:17:19.567Z,4.40
2017-12-06T23:19:48.631Z,4.50
2017-12-06T23:22:16.219Z,4.50
2017-12-06T23:24:43.792Z,4.50
2017-12-06T23:27:11.399Z,4.40
2017-12-06T23:29:39.008Z,4.50
2017-12-06T23:32:06.567Z,4.50
2017-12-06T23:34:34.148Z,4.50
2017-12-06T23:37:02.472Z,4.50
2017-12-06T23:39:30.083Z,4.50
2017-12-06T23:41:57.649Z,4.50
2017-12-06T23:44:25.996Z,4.50
2017-12-06T23:46:53.887Z,4.50
2017-12-06T23:49:21.475Z,4.50
2017-12-06T23:51:49.036Z,4.50
2017-12-06T23:54:16.640Z,4.50
2017-12-06T23:56:44.200Z,4.50
2017-12-06T23:59:11.763Z,4.60
